DTCCM DTTJ-LMML
Flight info
| Callsign | DTCCM |
|---|---|
| Flight time | 0h 40m |
| Altitude | 280 |
| Route | TRIFA1A TRIFA G362 RIMSA UG362 RALAK DCT DOKIK DCT VEKIM |
| Aircraft | E35L/M-SDFGIRWXY/SB1 |
Departure
| Time | 2026-05-07 14:47 |
|---|---|
| Airport | Djerba Zarzis International Airport (DTTJ) |
Arrival
| Time | 2026-05-07 15:28 |
|---|---|
| Airport | Malta International Airport (LMML) |
| Time | Latitude | Longitude | Altitude | Speed | Heading |
|---|---|---|---|---|---|
| 2026-05-07 14:41 | 33.87349 | 10.78070 | 23 ft | 0 kts | 180° |
| 2026-05-07 14:46 | 33.87351 | 10.78054 | 23 ft | 8 kts | 333° |
| 2026-05-07 14:46 | 33.87415 | 10.77964 | 23 ft | 18 kts | 271° |
| 2026-05-07 14:46 | 33.87409 | 10.77793 | 22 ft | 15 kts | 268° |
| 2026-05-07 14:46 | 33.87483 | 10.77721 | 20 ft | 18 kts | 352° |
| 2026-05-07 14:47 | 33.87544 | 10.77725 | 20 ft | 5 kts | 79° |
| 2026-05-07 14:47 | 33.87546 | 10.77774 | 20 ft | 29 kts | 89° |
| 2026-05-07 14:47 | 33.87569 | 10.78498 | 21 ft | 136 kts | 87° |
| 2026-05-07 14:47 | 33.87671 | 10.79705 | 876 ft | 153 kts | 68° |
| 2026-05-07 14:48 | 33.88369 | 10.80663 | 1925 ft | 164 kts | 42° |
| 2026-05-07 14:48 | 33.89305 | 10.81667 | 2554 ft | 205 kts | 43° |
| 2026-05-07 14:48 | 33.90486 | 10.82924 | 3288 ft | 243 kts | 40° |
| 2026-05-07 14:48 | 33.91800 | 10.84274 | 4453 ft | 258 kts | 40° |
| 2026-05-07 14:49 | 33.93113 | 10.85646 | 5961 ft | 256 kts | 39° |
| 2026-05-07 14:49 | 33.94444 | 10.87001 | 7357 ft | 256 kts | 39° |
| 2026-05-07 14:49 | 33.95780 | 10.88378 | 8533 ft | 262 kts | 38° |
| 2026-05-07 14:49 | 33.97163 | 10.89799 | 9606 ft | 270 kts | 37° |
| 2026-05-07 14:50 | 33.98593 | 10.91265 | 10645 ft | 278 kts | 36° |
| 2026-05-07 14:50 | 34.00084 | 10.92790 | 11715 ft | 284 kts | 36° |
| 2026-05-07 14:50 | 34.01575 | 10.94317 | 12750 ft | 288 kts | 36° |
| 2026-05-07 14:50 | 34.03086 | 10.95863 | 13785 ft | 290 kts | 36° |
| 2026-05-07 14:51 | 34.04612 | 10.97432 | 14770 ft | 293 kts | 36° |
| 2026-05-07 14:51 | 34.06170 | 10.99032 | 15695 ft | 297 kts | 36° |
| 2026-05-07 14:51 | 34.07737 | 11.00644 | 16587 ft | 300 kts | 36° |
| 2026-05-07 14:51 | 34.09326 | 11.02279 | 17468 ft | 303 kts | 35° |
| 2026-05-07 14:52 | 34.10928 | 11.03927 | 18294 ft | 306 kts | 36° |
| 2026-05-07 14:52 | 34.12534 | 11.05581 | 19107 ft | 309 kts | 35° |
| 2026-05-07 14:52 | 34.13102 | 11.06166 | 19387 ft | 309 kts | 35° |
| 2026-05-07 14:52 | 34.15698 | 11.08842 | 20597 ft | 314 kts | 35° |
| 2026-05-07 14:53 | 34.17386 | 11.10581 | 21334 ft | 316 kts | 35° |
| 2026-05-07 14:53 | 34.19055 | 11.12394 | 22058 ft | 320 kts | 37° |
| 2026-05-07 14:53 | 34.20696 | 11.14239 | 22731 ft | 323 kts | 37° |
| 2026-05-07 14:53 | 34.22348 | 11.16100 | 23376 ft | 325 kts | 37° |
| 2026-05-07 14:54 | 34.23995 | 11.17956 | 23998 ft | 328 kts | 38° |
| 2026-05-07 14:54 | 34.25645 | 11.19825 | 24616 ft | 330 kts | 38° |
| 2026-05-07 14:54 | 34.27324 | 11.21731 | 25211 ft | 332 kts | 38° |
| 2026-05-07 14:54 | 34.29000 | 11.23636 | 25765 ft | 334 kts | 38° |
| 2026-05-07 14:55 | 34.30707 | 11.25575 | 26310 ft | 337 kts | 37° |
| 2026-05-07 14:55 | 34.32400 | 11.27499 | 26817 ft | 339 kts | 37° |
| 2026-05-07 14:55 | 34.34140 | 11.29480 | 27349 ft | 341 kts | 38° |
| 2026-05-07 14:55 | 34.35849 | 11.31425 | 27879 ft | 342 kts | 38° |
| 2026-05-07 14:56 | 34.37600 | 11.33400 | 28331 ft | 344 kts | 37° |
| 2026-05-07 14:56 | 34.39341 | 11.35357 | 28770 ft | 347 kts | 37° |
| 2026-05-07 14:56 | 34.41151 | 11.37385 | 28881 ft | 358 kts | 37° |
| 2026-05-07 14:56 | 34.42976 | 11.39436 | 28886 ft | 360 kts | 37° |
| 2026-05-07 14:57 | 34.46650 | 11.43570 | 28886 ft | 357 kts | 37° |
| 2026-05-07 14:57 | 34.50307 | 11.47687 | 28884 ft | 356 kts | 37° |
| 2026-05-07 14:58 | 34.53600 | 11.52270 | 28894 ft | 361 kts | 48° |
| 2026-05-07 14:58 | 34.56500 | 11.57355 | 28882 ft | 362 kts | 49° |
| 2026-05-07 14:59 | 34.59357 | 11.62432 | 28885 ft | 361 kts | 49° |
| 2026-05-07 14:59 | 34.62195 | 11.67487 | 28882 ft | 361 kts | 50° |
| 2026-05-07 15:00 | 34.65057 | 11.72591 | 28884 ft | 361 kts | 50° |
| 2026-05-07 15:00 | 34.68021 | 11.77889 | 28879 ft | 362 kts | 50° |
| 2026-05-07 15:01 | 34.70925 | 11.83081 | 28881 ft | 363 kts | 50° |
| 2026-05-07 15:01 | 34.73784 | 11.88206 | 28881 ft | 363 kts | 50° |
| 2026-05-07 15:02 | 34.76761 | 11.93546 | 28880 ft | 363 kts | 50° |
| 2026-05-07 15:02 | 34.79693 | 11.98818 | 28879 ft | 361 kts | 50° |
| 2026-05-07 15:03 | 34.82513 | 12.03889 | 28880 ft | 360 kts | 50° |
| 2026-05-07 15:03 | 34.85323 | 12.08956 | 28878 ft | 360 kts | 50° |
| 2026-05-07 15:04 | 34.88129 | 12.14019 | 28880 ft | 361 kts | 50° |
| 2026-05-07 15:04 | 34.90938 | 12.19097 | 28881 ft | 362 kts | 50° |
| 2026-05-07 15:05 | 34.93744 | 12.24178 | 28882 ft | 364 kts | 49° |
| 2026-05-07 15:05 | 34.96605 | 12.29363 | 28879 ft | 365 kts | 49° |
| 2026-05-07 15:06 | 34.99444 | 12.34517 | 28879 ft | 366 kts | 49° |
| 2026-05-07 15:06 | 35.02364 | 12.39827 | 28879 ft | 367 kts | 49° |
| 2026-05-07 15:07 | 35.05317 | 12.45201 | 28879 ft | 368 kts | 49° |
| 2026-05-07 15:07 | 35.08187 | 12.50435 | 28878 ft | 367 kts | 49° |
| 2026-05-07 15:08 | 35.11054 | 12.55671 | 28890 ft | 366 kts | 49° |
| 2026-05-07 15:08 | 35.13965 | 12.60992 | 28891 ft | 366 kts | 49° |
| 2026-05-07 15:09 | 35.16818 | 12.66219 | 28889 ft | 367 kts | 49° |
| 2026-05-07 15:09 | 35.19675 | 12.71461 | 28889 ft | 367 kts | 49° |
| 2026-05-07 15:10 | 35.22549 | 12.76741 | 28888 ft | 367 kts | 49° |
| 2026-05-07 15:10 | 35.25393 | 12.81972 | 28887 ft | 367 kts | 49° |
| 2026-05-07 15:11 | 35.28068 | 12.86902 | 28887 ft | 367 kts | 49° |
| 2026-05-07 15:11 | 35.30859 | 12.92051 | 28887 ft | 367 kts | 49° |
| 2026-05-07 15:12 | 35.33678 | 12.97261 | 28887 ft | 367 kts | 49° |
| 2026-05-07 15:12 | 35.36483 | 13.02458 | 28886 ft | 365 kts | 49° |
| 2026-05-07 15:13 | 35.39263 | 13.07612 | 28886 ft | 363 kts | 48° |
| 2026-05-07 15:13 | 35.40661 | 13.10201 | 28472 ft | 371 kts | 48° |
| 2026-05-07 15:13 | 35.42071 | 13.12817 | 27598 ft | 372 kts | 48° |
| 2026-05-07 15:14 | 35.43474 | 13.15429 | 26725 ft | 366 kts | 48° |
| 2026-05-07 15:14 | 35.44854 | 13.17998 | 25849 ft | 360 kts | 48° |
| 2026-05-07 15:14 | 35.46226 | 13.20549 | 24965 ft | 354 kts | 48° |
| 2026-05-07 15:14 | 35.47322 | 13.23278 | 24066 ft | 366 kts | 66° |
| 2026-05-07 15:15 | 35.47900 | 13.26277 | 23220 ft | 363 kts | 68° |
| 2026-05-07 15:15 | 35.48437 | 13.29286 | 22344 ft | 360 kts | 69° |
| 2026-05-07 15:15 | 35.48948 | 13.32253 | 21473 ft | 357 kts | 70° |
| 2026-05-07 15:15 | 35.49450 | 13.35201 | 20603 ft | 354 kts | 70° |
| 2026-05-07 15:16 | 35.49952 | 13.38169 | 19720 ft | 352 kts | 70° |
| 2026-05-07 15:16 | 35.50438 | 13.41044 | 18859 ft | 349 kts | 71° |
| 2026-05-07 15:16 | 35.50926 | 13.43941 | 17985 ft | 346 kts | 71° |
| 2026-05-07 15:16 | 35.51410 | 13.46826 | 17109 ft | 344 kts | 71° |
| 2026-05-07 15:17 | 35.51885 | 13.49652 | 16245 ft | 342 kts | 71° |
| 2026-05-07 15:17 | 35.52358 | 13.52476 | 15375 ft | 339 kts | 72° |
| 2026-05-07 15:17 | 35.52832 | 13.55310 | 14498 ft | 337 kts | 72° |
| 2026-05-07 15:17 | 35.53300 | 13.58110 | 13626 ft | 335 kts | 72° |
| 2026-05-07 15:18 | 35.53758 | 13.60855 | 12765 ft | 333 kts | 73° |
| 2026-05-07 15:18 | 35.54218 | 13.63619 | 11893 ft | 330 kts | 73° |
| 2026-05-07 15:18 | 35.54676 | 13.66365 | 11016 ft | 329 kts | 74° |
| 2026-05-07 15:18 | 35.55130 | 13.69088 | 10140 ft | 328 kts | 75° |
| 2026-05-07 15:19 | 35.55579 | 13.71813 | 9263 ft | 326 kts | 75° |
| 2026-05-07 15:19 | 35.56035 | 13.74531 | 8383 ft | 326 kts | 76° |
| 2026-05-07 15:19 | 35.56486 | 13.77252 | 7506 ft | 326 kts | 77° |
| 2026-05-07 15:19 | 35.56932 | 13.79974 | 6623 ft | 325 kts | 77° |
| 2026-05-07 15:20 | 35.57368 | 13.82654 | 5758 ft | 323 kts | 77° |
| 2026-05-07 15:20 | 35.57802 | 13.85293 | 5034 ft | 317 kts | 78° |
| 2026-05-07 15:20 | 35.58226 | 13.87849 | 4600 ft | 308 kts | 79° |
| 2026-05-07 15:20 | 35.58642 | 13.90361 | 4317 ft | 296 kts | 79° |
| 2026-05-07 15:21 | 35.59011 | 13.92678 | 4091 ft | 280 kts | 78° |
| 2026-05-07 15:21 | 35.59375 | 13.94905 | 3950 ft | 262 kts | 78° |
| 2026-05-07 15:21 | 35.59737 | 13.97004 | 3807 ft | 247 kts | 81° |
| 2026-05-07 15:21 | 35.60064 | 13.99075 | 3682 ft | 249 kts | 79° |
| 2026-05-07 15:22 | 35.60405 | 14.01197 | 3560 ft | 249 kts | 80° |
| 2026-05-07 15:22 | 35.60743 | 14.03302 | 3439 ft | 248 kts | 78° |
| 2026-05-07 15:22 | 35.61173 | 14.05368 | 3301 ft | 255 kts | 61° |
| 2026-05-07 15:22 | 35.62139 | 14.07160 | 3192 ft | 251 kts | 53° |
| 2026-05-07 15:23 | 35.63123 | 14.08888 | 3078 ft | 244 kts | 54° |
| 2026-05-07 15:23 | 35.64108 | 14.10587 | 2952 ft | 251 kts | 52° |
| 2026-05-07 15:23 | 35.65111 | 14.12315 | 2846 ft | 245 kts | 53° |
| 2026-05-07 15:23 | 35.66131 | 14.14052 | 2847 ft | 244 kts | 52° |
| 2026-05-07 15:24 | 35.67111 | 14.15749 | 2829 ft | 246 kts | 52° |
| 2026-05-07 15:24 | 35.68116 | 14.17476 | 2836 ft | 241 kts | 53° |
| 2026-05-07 15:24 | 35.69134 | 14.19187 | 2839 ft | 248 kts | 52° |
| 2026-05-07 15:24 | 35.70165 | 14.20956 | 2842 ft | 250 kts | 55° |
| 2026-05-07 15:25 | 35.71418 | 14.23131 | 2823 ft | 246 kts | 51° |
| 2026-05-07 15:25 | 35.75577 | 14.30179 | 2865 ft | 253 kts | 54° |
| 2026-05-07 15:25 | 35.76538 | 14.31879 | 2805 ft | 234 kts | 53° |
| 2026-05-07 15:25 | 35.77468 | 14.33450 | 2688 ft | 219 kts | 54° |
| 2026-05-07 15:26 | 35.78295 | 14.34890 | 2500 ft | 212 kts | 53° |
| 2026-05-07 15:26 | 35.78841 | 14.35852 | 2360 ft | 207 kts | 54° |
| 2026-05-07 15:26 | 35.79099 | 14.36274 | 2294 ft | 205 kts | 52° |
| 2026-05-07 15:26 | 35.81629 | 14.40718 | 1617 ft | 200 kts | 53° |
| 2026-05-07 15:27 | 35.83380 | 14.43599 | 1130 ft | 186 kts | 57° |
| 2026-05-07 15:27 | 35.84081 | 14.44834 | 637 ft | 165 kts | 57° |
| 2026-05-07 15:27 | 35.84691 | 14.45903 | 346 ft | 146 kts | 54° |
| 2026-05-07 15:27 | 35.85229 | 14.46840 | 305 ft | 113 kts | 53° |
| 2026-05-07 15:28 | 35.85572 | 14.47424 | 304 ft | 66 kts | 52° |
| 2026-05-07 15:28 | 35.85773 | 14.47738 | 304 ft | 11 kts | 0° |
| 2026-05-07 15:28 | 35.85844 | 14.47648 | 304 ft | 16 kts | 332° |
| 2026-05-07 15:28 | 35.85888 | 14.47714 | 304 ft | 12 kts | 70° |
| 2026-05-07 15:29 | 35.85915 | 14.47761 | 304 ft | 8 kts | 296° |
| 2026-05-07 15:29 | 35.85972 | 14.47758 | 304 ft | 7 kts | 82° |
| 2026-05-07 15:29 | 35.85968 | 14.47785 | 304 ft | 3 kts | 136° |
| 2026-05-07 15:29 | 35.85966 | 14.47786 | 304 ft | 0 kts | 152° |